x

Buoy A01 - Mass. Bay/stellwagen (44029) Wave Buoy

10:04 - Fri 18th Aug 2017 All times are EDT. -4 hours from GMT.

  • Sig Wave height 3.0ft
  • Peak Period 5s
  • Wind
    18mph, 20mph gusts
  • Sea Temp 66°f
  • Luft Temp 69°f
  • Sea Pressure 1008.5mb
  • Buoy A01 - Mass. Bay/stellwagen
  • Buoy A01 - Mass. Bay/stellwagen

More Historic Weather Station data

Upgrade to MSW Pro to gain access to the past 30 days of data for over 8000 Wavebouys and Weather Stations around the globe.

Join

Comparision Forecast

View Surf forecast
   
Fr 08/18 10:04 3ft 5s 18 20 mph 1008.5mb 66f 69f
9:04 2.5ft 5s 18 22 mph 1008.7mb 66f 69f
8:04 3ft 5s 18 20 mph 1008.8mb 66f 70f
7:04 2.5ft 5s 16 18 mph 1009.3mb 67f 70f
6:04 3ft 5s 16 18 mph 1009.3mb 66f 70f
5:04 2.5ft 4s 11 16 mph 1009.8mb 66f 69f
4:04 2.5ft 4s 13 16 mph 1010.2mb 66f 70f
3:04 3.5ft 4s 18 22 mph 1010.5mb 66f 70f
2:04 2.5ft 4s 20 25 mph 1010.8mb 67f 70f
1:04 2.5ft 4s 18 22 mph 1011.8mb 67f 70f
12:04 2.5ft 3s 20 22 mph 1012.2mb 67f 69f
11:04 2ft 8s 18 20 mph 1012.4mb 67f 69f
10:04 1.6ft 8s 13 16 mph 1012.9mb 67f 69f
9:04 1ft 3s 11 13 mph 1013.6mb 67f 68f
8:04 1ft 8s 11 13 mph 1014.1mb 67f 68f
7:04 1.3ft 8s 9 11 mph 1013.8mb 67f 68f
6:04 1.3ft 11s 9 11 mph 1013.8mb 67f 67f
5:04 1.6ft 11s 9 11 mph 1013.8mb 66f 67f
4:04 1ft 3s 7 9 mph 1014.3mb 66f 67f
3:04 1ft 3s 9 9 mph 1014.6mb 66f 67f
2:04 1.6ft 8s 9 11 mph 1014.9mb 67f 67f
1:04 1ft 3s 11 13 mph 1015mb 67f 68f
12:04 1.3ft 4s 9 11 mph 1015.1mb 67f 69f
Do 08/17 11:04 1ft 3s 9 11 mph 1014.9mb 67f 69f
10:04 1.3ft 3s 11 13 mph 1014.6mb 67f 70f
9:04 1.3ft 3s 11 13 mph 1014.5mb 67f 70f
8:04 1.3ft 3s 13 16 mph 1014mb 68f 70f
7:04 1.6ft 3s 11 16 mph 1013.8mb 68f 71f
6:04 1ft 2s 13 16 mph 1013.8mb 68f 71f
5:04 2ft 11s 13 18 mph 1013.9mb 68f 71f
4:04 1.6ft 11s 11 13 mph 1014.3mb 68f 71f
3:04 1.6ft 9s 11 13 mph 1014.7mb 68f 71f
2:04 2ft 11s 11 13 mph 1015.4mb 68f 70f
1:04 1.3ft 10s 13 16 mph 1016mb 68f 69f
12:04 1.6ft 11s 13 13 mph 1016.3mb 68f 68f
11:04 1.6ft 11s 13 13 mph 1016.9mb 68f 67f
10:04 1ft 2s 11 11 mph 1017.1mb 68f 66f
9:04 2ft 11s 11 11 mph 1017mb 67f 65f
8:04 1ft 5s 11 13 mph 1017mb 67f 65f
7:04 1ft 3s 9 11 mph 1016.6mb 67f 64f
6:04 1.3ft 6s 11 13 mph 1016.2mb 68f 64f
5:04 1ft 3s 11 13 mph 1015.9mb 68f 64f
4:04 1.3ft 6s 11 13 mph 1016.1mb 67f 64f
3:04 0.7ft  -  11 13 mph 1015.8mb 67f 65f
2:04 1.3ft 10s 9 13 mph 1015.7mb 67f 67f
1:04 1.6ft 11s 9 11 mph 1015.6mb 67f 67f
12:04 0.7ft  -  9 11 mph 1015.6mb 67f 67f
Mi 08/16 11:04 0.7ft  -  9 11 mph 1015.2mb 67f 68f
10:04 1.6ft 12s 9 13 mph 1014.6mb 68f 69f
9:04 2ft 11s 9 11 mph 1014.1mb 68f 70f
8:04 2ft 11s 9 9 mph 1013.4mb 69f 71f
7:04 1ft 3s 9 11 mph 1012.4mb 69f 71f
6:04 1ft 2s 16 18 mph 1011.8mb 69f 73f
5:04 1.3ft 6s 11 13 mph 1011.7mb 69f 74f
4:04 1.3ft 6s 9 11 mph 1011.8mb 69f 74f
3:04 0.7ft  -  9 11 mph 1012.1mb 68f 74f
2:04 1.3ft 11s 7 9 mph 1012.5mb 68f 72f
1:04 1.6ft 11s 7 9 mph 1012.5mb 68f 71f
12:04 1ft 2s 7 9 mph 1012.3mb 67f 70f
11:04 1ft 2s 9 11 mph 1012.3mb 67f 70f
10:04 1ft  -  13 16 mph 1012.3mb 67f 70f
9:04 1.6ft 11s 4 4 mph 1012.1mb 67f 68f
8:04 1.6ft 8s 7 9 mph 1011.9mb 67f 67f
7:04 1.3ft 3s 11 13 mph 1011.5mb 67f 67f
6:04 1.6ft 6s 13 16 mph 1011mb 67f 67f
5:04 1.3ft 6s 11 13 mph 1010.5mb 67f 67f
4:04 1ft 3s 11 13 mph 1010.5mb 67f 67f
3:04 1.6ft 6s 13 16 mph 1010.7mb 67f 67f
2:04 1.6ft 8s 13 13 mph 1010.5mb 67f 68f
1:04 1.3ft 6s 11 13 mph 1010.5mb 67f 68f
12:04 1.6ft 8s 11 13 mph 1010.6mb 67f 68f
Di 08/15 11:04 1.6ft 6s 11 13 mph 1010.8mb 67f 68f
10:04 2ft 4s 11 16 mph 1011.3mb 68f 69f
9:04 2.5ft 8s 13 16 mph 1011.1mb 68f 69f
8:04 2ft 3s 16 20 mph 1010.9mb 68f 70f
7:04 2ft 8s 16 18 mph 1010.8mb 68f 71f
6:04 1.6ft 8s 13 16 mph 1010.7mb 68f 71f
5:04 2ft 8s 9 9 mph 1010.7mb 68f 71f
4:04 2ft 6s 9 9 mph 1011.2mb 68f 71f
3:04 2ft 6s 11 11 mph 1011.5mb 68f 71f
2:04 2.5ft 6s 11 11 mph 1011.6mb 68f 71f
1:04 2.5ft 6s 9 9 mph 1012.3mb 67f 70f
12:04 2ft 8s 7 9 mph 1012.5mb 68f 69f
11:04 1.3ft 8s 9 9 mph 1012.9mb 68f 69f
10:04 1.3ft 8s 7 7 mph 1013.2mb 68f 68f
9:04 1.3ft 8s 9 9 mph 1013.3mb 67f 68f
8:04 1.3ft 8s 7 7 mph 1013.3mb 67f 67f
7:04 1.6ft 8s 7 7 mph 1013.1mb 67f 68f
6:04 1.6ft 8s 7 9 mph 1013.4mb 67f 68f
5:04 1.6ft 8s 7 9 mph 1013.1mb 67f 68f
4:04 1.6ft 6s 7 9 mph 1013.2mb 67f 68f